sensor_id;sensor_type;location;lat;lon;timestamp;temperature;humidity
11214;DHT22;5664;48.606;13.456;2022-12-07T00:01:12;22.50;95.90
11214;DHT22;5664;48.606;13.456;2022-12-07T00:03:38;22.50;96.00
11214;DHT22;5664;48.606;13.456;2022-12-07T00:06:04;22.50;96.00
11214;DHT22;5664;48.606;13.456;2022-12-07T00:08:30;22.40;96.00
11214;DHT22;5664;48.606;13.456;2022-12-07T00:11:00;22.40;96.10
11214;DHT22;5664;48.606;13.456;2022-12-07T00:15:51;22.30;95.90
11214;DHT22;5664;48.606;13.456;2022-12-07T00:18:17;22.30;96.10
11214;DHT22;5664;48.606;13.456;2022-12-07T00:20:42;22.30;96.50
11214;DHT22;5664;48.606;13.456;2022-12-07T00:23:08;22.30;96.20
11214;DHT22;5664;48.606;13.456;2022-12-07T00:25:33;22.20;96.50
11214;DHT22;5664;48.606;13.456;2022-12-07T00:27:58;22.20;96.20
11214;DHT22;5664;48.606;13.456;2022-12-07T00:30:24;22.20;96.10
11214;DHT22;5664;48.606;13.456;2022-12-07T00:32:49;22.20;96.20
11214;DHT22;5664;48.606;13.456;2022-12-07T00:35:15;22.20;96.20
11214;DHT22;5664;48.606;13.456;2022-12-07T00:37:40;22.20;96.20
11214;DHT22;5664;48.606;13.456;2022-12-07T00:40:06;22.20;96.20
11214;DHT22;5664;48.606;13.456;2022-12-07T00:42:32;22.20;96.30
11214;DHT22;5664;48.606;13.456;2022-12-07T00:44:57;22.20;96.30
11214;DHT22;5664;48.606;13.456;2022-12-07T00:47:23;22.20;96.30
11214;DHT22;5664;48.606;13.456;2022-12-07T00:49:48;22.10;96.30
11214;DHT22;5664;48.606;13.456;2022-12-07T00:52:13;22.10;96.30
11214;DHT22;5664;48.606;13.456;2022-12-07T00:54:39;22.10;96.30
11214;DHT22;5664;48.606;13.456;2022-12-07T00:57:05;22.10;96.40
11214;DHT22;5664;48.606;13.456;2022-12-07T00:59:30;22.10;96.40
11214;DHT22;5664;48.606;13.456;2022-12-07T01:01:56;22.10;96.40
11214;DHT22;5664;48.606;13.456;2022-12-07T01:04:21;22.10;96.40
11214;DHT22;5664;48.606;13.456;2022-12-07T01:06:46;22.00;96.40
11214;DHT22;5664;48.606;13.456;2022-12-07T01:09:12;22.10;96.30
11214;DHT22;5664;48.606;13.456;2022-12-07T01:11:37;22.00;96.40
11214;DHT22;5664;48.606;13.456;2022-12-07T01:14:03;22.00;96.30
11214;DHT22;5664;48.606;13.456;2022-12-07T01:16:29;22.00;96.40
11214;DHT22;5664;48.606;13.456;2022-12-07T01:18:55;22.00;96.40
11214;DHT22;5664;48.606;13.456;2022-12-07T01:21:22;22.00;97.30
11214;DHT22;5664;48.606;13.456;2022-12-07T01:23:48;22.00;96.40
11214;DHT22;5664;48.606;13.456;2022-12-07T01:26:15;22.00;96.40
11214;DHT22;5664;48.606;13.456;2022-12-07T01:28:41;22.00;96.40
11214;DHT22;5664;48.606;13.456;2022-12-07T01:31:07;22.00;96.40
11214;DHT22;5664;48.606;13.456;2022-12-07T01:33:34;22.00;96.40
11214;DHT22;5664;48.606;13.456;2022-12-07T01:36:03;22.00;96.30
11214;DHT22;5664;48.606;13.456;2022-12-07T01:38:29;22.00;96.30
11214;DHT22;5664;48.606;13.456;2022-12-07T01:43:21;22.00;95.90
11214;DHT22;5664;48.606;13.456;2022-12-07T01:45:48;22.00;96.20
11214;DHT22;5664;48.606;13.456;2022-12-07T01:48:14;22.00;96.20
11214;DHT22;5664;48.606;13.456;2022-12-07T01:50:41;21.90;96.20
11214;DHT22;5664;48.606;13.456;2022-12-07T01:53:07;22.00;96.70
11214;DHT22;5664;48.606;13.456;2022-12-07T01:55:34;22.00;96.30
11214;DHT22;5664;48.606;13.456;2022-12-07T01:58:00;22.00;96.30
11214;DHT22;5664;48.606;13.456;2022-12-07T02:00:25;22.00;96.30
11214;DHT22;5664;48.606;13.456;2022-12-07T02:02:55;22.00;96.20
11214;DHT22;5664;48.606;13.456;2022-12-07T02:05:23;22.00;96.30
11214;DHT22;5664;48.606;13.456;2022-12-07T02:07:49;22.00;96.30
11214;DHT22;5664;48.606;13.456;2022-12-07T02:10:18;22.00;96.30
11214;DHT22;5664;48.606;13.456;2022-12-07T02:12:44;21.90;96.20
11214;DHT22;5664;48.606;13.456;2022-12-07T02:15:10;22.00;96.20
11214;DHT22;5664;48.606;13.456;2022-12-07T02:28:45;21.90;96.10
11214;DHT22;5664;48.606;13.456;2022-12-07T02:31:12;21.90;96.20
11214;DHT22;5664;48.606;13.456;2022-12-07T02:33:41;21.90;96.20
11214;DHT22;5664;48.606;13.456;2022-12-07T02:36:08;21.90;96.20
11214;DHT22;5664;48.606;13.456;2022-12-07T02:38:39;21.90;96.20
11214;DHT22;5664;48.606;13.456;2022-12-07T02:41:10;21.90;96.20
11214;DHT22;5664;48.606;13.456;2022-12-07T02:43:38;21.90;96.20
11214;DHT22;5664;48.606;13.456;2022-12-07T02:46:06;21.90;96.20
11214;DHT22;5664;48.606;13.456;2022-12-07T02:48:33;21.90;96.30
11214;DHT22;5664;48.606;13.456;2022-12-07T02:50:59;21.90;96.30
11214;DHT22;5664;48.606;13.456;2022-12-07T02:53:28;21.80;96.30
11214;DHT22;5664;48.606;13.456;2022-12-07T02:55:54;21.80;97.10
11214;DHT22;5664;48.606;13.456;2022-12-07T02:58:32;21.90;96.30
11214;DHT22;5664;48.606;13.456;2022-12-07T03:01:04;21.80;96.20
11214;DHT22;5664;48.606;13.456;2022-12-07T03:03:34;21.80;96.30
11214;DHT22;5664;48.606;13.456;2022-12-07T03:06:04;21.80;96.20
11214;DHT22;5664;48.606;13.456;2022-12-07T03:08:36;21.90;96.20
11214;DHT22;5664;48.606;13.456;2022-12-07T03:11:03;21.80;96.20
11214;DHT22;5664;48.606;13.456;2022-12-07T03:13:31;21.80;96.20
11214;DHT22;5664;48.606;13.456;2022-12-07T03:18:26;21.80;96.20
11214;DHT22;5664;48.606;13.456;2022-12-07T03:20:53;21.90;96.20
11214;DHT22;5664;48.606;13.456;2022-12-07T03:23:20;21.90;96.20
11214;DHT22;5664;48.606;13.456;2022-12-07T03:25:49;21.80;96.10
11214;DHT22;5664;48.606;13.456;2022-12-07T03:28:16;21.80;96.50
11214;DHT22;5664;48.606;13.456;2022-12-07T03:31:03;21.90;96.10
11214;DHT22;5664;48.606;13.456;2022-12-07T03:33:49;21.90;96.00
11214;DHT22;5664;48.606;13.456;2022-12-07T03:36:21;21.90;96.10
11214;DHT22;5664;48.606;13.456;2022-12-07T03:38:50;21.90;96.00
11214;DHT22;5664;48.606;13.456;2022-12-07T03:41:19;21.90;95.90
11214;DHT22;5664;48.606;13.456;2022-12-07T03:43:47;21.90;96.00
11214;DHT22;5664;48.606;13.456;2022-12-07T03:51:25;21.90;95.90
11214;DHT22;5664;48.606;13.456;2022-12-07T03:54:01;21.90;95.90
11214;DHT22;5664;48.606;13.456;2022-12-07T03:56:27;21.90;95.80
11214;DHT22;5664;48.606;13.456;2022-12-07T03:58:54;21.90;95.80
11214;DHT22;5664;48.606;13.456;2022-12-07T04:01:19;21.90;95.90
11214;DHT22;5664;48.606;13.456;2022-12-07T04:03:45;21.90;95.80
11214;DHT22;5664;48.606;13.456;2022-12-07T04:06:10;21.90;95.80
11214;DHT22;5664;48.606;13.456;2022-12-07T04:08:36;21.90;95.90
11214;DHT22;5664;48.606;13.456;2022-12-07T04:11:01;21.80;95.80
11214;DHT22;5664;48.606;13.456;2022-12-07T04:13:27;21.90;95.90
11214;DHT22;5664;48.606;13.456;2022-12-07T04:15:52;21.90;95.90
11214;DHT22;5664;48.606;13.456;2022-12-07T04:18:18;21.80;95.90
11214;DHT22;5664;48.606;13.456;2022-12-07T04:20:43;21.80;95.90
11214;DHT22;5664;48.606;13.456;2022-12-07T04:23:10;21.80;95.80
11214;DHT22;5664;48.606;13.456;2022-12-07T04:25:35;21.80;95.50
11214;DHT22;5664;48.606;13.456;2022-12-07T04:28:01;21.80;95.50
11214;DHT22;5664;48.606;13.456;2022-12-07T04:30:26;21.80;95.90
11214;DHT22;5664;48.606;13.456;2022-12-07T04:32:52;21.80;95.80
11214;DHT22;5664;48.606;13.456;2022-12-07T04:35:17;21.80;95.90
11214;DHT22;5664;48.606;13.456;2022-12-07T04:37:43;21.80;95.90
11214;DHT22;5664;48.606;13.456;2022-12-07T04:40:08;21.80;95.90
11214;DHT22;5664;48.606;13.456;2022-12-07T04:42:36;21.80;95.90
11214;DHT22;5664;48.606;13.456;2022-12-07T04:45:02;21.80;95.90
11214;DHT22;5664;48.606;13.456;2022-12-07T04:47:27;21.70;95.90
11214;DHT22;5664;48.606;13.456;2022-12-07T04:49:52;21.80;95.90
11214;DHT22;5664;48.606;13.456;2022-12-07T04:52:18;21.80;95.90
11214;DHT22;5664;48.606;13.456;2022-12-07T04:54:43;21.80;95.90
11214;DHT22;5664;48.606;13.456;2022-12-07T04:57:09;21.70;95.90
11214;DHT22;5664;48.606;13.456;2022-12-07T04:59:34;21.70;96.00
11214;DHT22;5664;48.606;13.456;2022-12-07T05:02:00;21.80;96.00
11214;DHT22;5664;48.606;13.456;2022-12-07T05:04:25;21.70;95.90
11214;DHT22;5664;48.606;13.456;2022-12-07T05:06:51;21.70;96.00
11214;DHT22;5664;48.606;13.456;2022-12-07T05:09:16;21.70;96.00
11214;DHT22;5664;48.606;13.456;2022-12-07T05:11:41;21.70;96.10
11214;DHT22;5664;48.606;13.456;2022-12-07T05:16:33;21.70;96.00
11214;DHT22;5664;48.606;13.456;2022-12-07T05:18:59;21.70;96.10
11214;DHT22;5664;48.606;13.456;2022-12-07T05:23:50;21.60;95.80
11214;DHT22;5664;48.606;13.456;2022-12-07T05:26:16;21.60;96.20
11214;DHT22;5664;48.606;13.456;2022-12-07T05:28:41;21.60;96.20
11214;DHT22;5664;48.606;13.456;2022-12-07T05:31:07;21.60;96.20
11214;DHT22;5664;48.606;13.456;2022-12-07T05:33:32;21.60;96.30
11214;DHT22;5664;48.606;13.456;2022-12-07T05:35:58;21.60;96.30
11214;DHT22;5664;48.606;13.456;2022-12-07T05:38:23;21.60;96.20
11214;DHT22;5664;48.606;13.456;2022-12-07T05:40:50;21.70;96.20
11214;DHT22;5664;48.606;13.456;2022-12-07T05:43:15;21.70;96.10
11214;DHT22;5664;48.606;13.456;2022-12-07T05:45:41;21.80;96.10
11214;DHT22;5664;48.606;13.456;2022-12-07T05:48:06;21.80;96.00
11214;DHT22;5664;48.606;13.456;2022-12-07T05:50:32;21.90;95.90
11214;DHT22;5664;48.606;13.456;2022-12-07T05:52:57;21.90;95.80
11214;DHT22;5664;48.606;13.456;2022-12-07T05:55:23;22.00;95.80
11214;DHT22;5664;48.606;13.456;2022-12-07T05:57:48;22.00;95.80
11214;DHT22;5664;48.606;13.456;2022-12-07T06:00:32;22.10;95.70
11214;DHT22;5664;48.606;13.456;2022-12-07T06:02:58;22.20;95.80
11214;DHT22;5664;48.606;13.456;2022-12-07T06:05:23;22.20;95.60
11214;DHT22;5664;48.606;13.456;2022-12-07T06:07:49;22.20;95.60
11214;DHT22;5664;48.606;13.456;2022-12-07T06:10:14;22.20;95.60
11214;DHT22;5664;48.606;13.456;2022-12-07T06:12:40;22.20;95.60
11214;DHT22;5664;48.606;13.456;2022-12-07T06:15:07;22.30;95.50
11214;DHT22;5664;48.606;13.456;2022-12-07T06:17:33;22.30;95.50
11214;DHT22;5664;48.606;13.456;2022-12-07T06:19:58;22.30;95.40
11214;DHT22;5664;48.606;13.456;2022-12-07T06:22:24;22.40;94.60
11214;DHT22;5664;48.606;13.456;2022-12-07T06:24:49;22.40;96.10
11214;DHT22;5664;48.606;13.456;2022-12-07T06:27:15;22.50;95.30
11214;DHT22;5664;48.606;13.456;2022-12-07T06:29:40;22.50;95.30
11214;DHT22;5664;48.606;13.456;2022-12-07T06:32:06;22.50;95.20
11214;DHT22;5664;48.606;13.456;2022-12-07T06:34:31;22.50;95.20
11214;DHT22;5664;48.606;13.456;2022-12-07T06:36:57;22.50;95.10
11214;DHT22;5664;48.606;13.456;2022-12-07T06:39:24;22.60;95.10
11214;DHT22;5664;48.606;13.456;2022-12-07T06:41:50;22.60;95.00
11214;DHT22;5664;48.606;13.456;2022-12-07T06:44:17;22.60;94.90
11214;DHT22;5664;48.606;13.456;2022-12-07T06:46:42;22.60;94.80
11214;DHT22;5664;48.606;13.456;2022-12-07T06:49:08;22.70;94.90
11214;DHT22;5664;48.606;13.456;2022-12-07T06:51:33;22.60;94.90
11214;DHT22;5664;48.606;13.456;2022-12-07T06:54:04;22.70;94.80
11214;DHT22;5664;48.606;13.456;2022-12-07T06:56:30;22.70;94.90
11214;DHT22;5664;48.606;13.456;2022-12-07T06:58:55;22.70;94.80
11214;DHT22;5664;48.606;13.456;2022-12-07T07:01:21;22.70;94.70
11214;DHT22;5664;48.606;13.456;2022-12-07T07:03:46;22.70;94.70
11214;DHT22;5664;48.606;13.456;2022-12-07T07:06:12;22.70;93.80
11214;DHT22;5664;48.606;13.456;2022-12-07T07:08:38;22.70;93.80
11214;DHT22;5664;48.606;13.456;2022-12-07T07:11:04;22.70;93.90
11214;DHT22;5664;48.606;13.456;2022-12-07T07:13:30;22.70;93.90
11214;DHT22;5664;48.606;13.456;2022-12-07T07:15:55;22.70;93.90
11214;DHT22;5664;48.606;13.456;2022-12-07T07:18:21;22.70;93.90
11214;DHT22;5664;48.606;13.456;2022-12-07T07:20:47;22.70;94.00
11214;DHT22;5664;48.606;13.456;2022-12-07T07:23:12;22.70;94.10
11214;DHT22;5664;48.606;13.456;2022-12-07T07:25:38;22.80;94.40
11214;DHT22;5664;48.606;13.456;2022-12-07T07:28:03;22.70;94.40
11214;DHT22;5664;48.606;13.456;2022-12-07T07:30:29;22.70;94.70
11214;DHT22;5664;48.606;13.456;2022-12-07T07:32:58;22.70;94.70
11214;DHT22;5664;48.606;13.456;2022-12-07T07:35:24;22.70;94.70
11214;DHT22;5664;48.606;13.456;2022-12-07T07:37:50;22.80;94.80
11214;DHT22;5664;48.606;13.456;2022-12-07T07:40:15;22.70;94.70
11214;DHT22;5664;48.606;13.456;2022-12-07T07:42:41;22.70;94.70
11214;DHT22;5664;48.606;13.456;2022-12-07T07:45:06;22.70;94.60
11214;DHT22;5664;48.606;13.456;2022-12-07T07:47:32;22.70;94.60
11214;DHT22;5664;48.606;13.456;2022-12-07T07:49:57;22.70;94.60
11214;DHT22;5664;48.606;13.456;2022-12-07T07:52:23;22.70;94.60
11214;DHT22;5664;48.606;13.456;2022-12-07T07:54:48;22.70;94.60
11214;DHT22;5664;48.606;13.456;2022-12-07T07:57:14;22.70;94.60
11214;DHT22;5664;48.606;13.456;2022-12-07T07:59:41;22.70;94.70
11214;DHT22;5664;48.606;13.456;2022-12-07T08:02:07;22.70;94.60
11214;DHT22;5664;48.606;13.456;2022-12-07T08:04:34;22.70;94.60
11214;DHT22;5664;48.606;13.456;2022-12-07T08:07:01;22.70;94.60
11214;DHT22;5664;48.606;13.456;2022-12-07T08:09:26;22.70;94.50
11214;DHT22;5664;48.606;13.456;2022-12-07T08:11:52;22.70;94.60
11214;DHT22;5664;48.606;13.456;2022-12-07T08:14:17;22.70;94.60
11214;DHT22;5664;48.606;13.456;2022-12-07T08:16:43;22.70;94.60
11214;DHT22;5664;48.606;13.456;2022-12-07T08:19:08;22.70;94.70
11214;DHT22;5664;48.606;13.456;2022-12-07T08:21:34;22.70;94.60
11214;DHT22;5664;48.606;13.456;2022-12-07T08:23:59;22.70;94.60
11214;DHT22;5664;48.606;13.456;2022-12-07T08:26:24;22.70;94.60
11214;DHT22;5664;48.606;13.456;2022-12-07T08:28:50;22.70;94.50
11214;DHT22;5664;48.606;13.456;2022-12-07T08:31:16;22.70;94.50
11214;DHT22;5664;48.606;13.456;2022-12-07T08:33:44;22.70;94.50
11214;DHT22;5664;48.606;13.456;2022-12-07T08:36:10;22.70;94.50
11214;DHT22;5664;48.606;13.456;2022-12-07T08:38:36;22.60;94.50
11214;DHT22;5664;48.606;13.456;2022-12-07T08:43:28;22.60;94.20
11214;DHT22;5664;48.606;13.456;2022-12-07T08:46:11;22.70;94.50
11214;DHT22;5664;48.606;13.456;2022-12-07T08:48:42;22.60;94.40
11214;DHT22;5664;48.606;13.456;2022-12-07T08:51:09;22.60;94.40
11214;DHT22;5664;48.606;13.456;2022-12-07T08:53:34;22.60;94.50
11214;DHT22;5664;48.606;13.456;2022-12-07T08:56:00;22.60;94.50
11214;DHT22;5664;48.606;13.456;2022-12-07T08:58:26;22.60;94.50
11214;DHT22;5664;48.606;13.456;2022-12-07T09:00:51;22.60;94.50
11214;DHT22;5664;48.606;13.456;2022-12-07T09:03:17;22.60;94.60
11214;DHT22;5664;48.606;13.456;2022-12-07T09:05:43;22.50;94.60
11214;DHT22;5664;48.606;13.456;2022-12-07T09:08:08;22.50;94.70
11214;DHT22;5664;48.606;13.456;2022-12-07T09:10:34;22.50;94.70
11214;DHT22;5664;48.606;13.456;2022-12-07T09:12:59;22.40;94.80
11214;DHT22;5664;48.606;13.456;2022-12-07T09:15:28;22.40;94.90
11214;DHT22;5664;48.606;13.456;2022-12-07T09:17:54;22.40;94.90
11214;DHT22;5664;48.606;13.456;2022-12-07T09:20:19;22.30;95.00
11214;DHT22;5664;48.606;13.456;2022-12-07T09:22:45;22.20;95.00
11214;DHT22;5664;48.606;13.456;2022-12-07T09:25:10;22.20;95.00
11214;DHT22;5664;48.606;13.456;2022-12-07T09:27:36;22.20;95.10
11214;DHT22;5664;48.606;13.456;2022-12-07T09:30:01;22.10;95.10
11214;DHT22;5664;48.606;13.456;2022-12-07T09:32:27;22.10;95.10
11214;DHT22;5664;48.606;13.456;2022-12-07T09:34:53;22.10;95.10
11214;DHT22;5664;48.606;13.456;2022-12-07T09:37:18;22.00;95.20
11214;DHT22;5664;48.606;13.456;2022-12-07T09:39:44;22.00;95.30
11214;DHT22;5664;48.606;13.456;2022-12-07T09:42:11;22.00;95.20
11214;DHT22;5664;48.606;13.456;2022-12-07T09:44:43;22.00;95.30
11214;DHT22;5664;48.606;13.456;2022-12-07T09:47:08;22.00;95.30
11214;DHT22;5664;48.606;13.456;2022-12-07T09:49:35;22.00;95.30
11214;DHT22;5664;48.606;13.456;2022-12-07T09:52:02;22.00;95.30
11214;DHT22;5664;48.606;13.456;2022-12-07T09:54:28;22.00;95.30
11214;DHT22;5664;48.606;13.456;2022-12-07T09:56:54;22.00;95.30
11214;DHT22;5664;48.606;13.456;2022-12-07T09:59:19;21.90;95.30
11214;DHT22;5664;48.606;13.456;2022-12-07T10:01:46;21.90;95.40
11214;DHT22;5664;48.606;13.456;2022-12-07T10:04:19;21.90;95.40
11214;DHT22;5664;48.606;13.456;2022-12-07T10:06:46;21.90;95.50
11214;DHT22;5664;48.606;13.456;2022-12-07T10:09:14;21.90;95.60
11214;DHT22;5664;48.606;13.456;2022-12-07T10:11:57;21.90;95.70
11214;DHT22;5664;48.606;13.456;2022-12-07T10:14:22;21.90;95.70
11214;DHT22;5664;48.606;13.456;2022-12-07T10:16:48;21.90;95.70
11214;DHT22;5664;48.606;13.456;2022-12-07T10:19:32;21.90;95.80
11214;DHT22;5664;48.606;13.456;2022-12-07T10:22:03;21.90;95.70
11214;DHT22;5664;48.606;13.456;2022-12-07T10:24:29;21.80;95.70
11214;DHT22;5664;48.606;13.456;2022-12-07T10:26:54;21.80;95.70
11214;DHT22;5664;48.606;13.456;2022-12-07T10:31:46;21.90;95.70
11214;DHT22;5664;48.606;13.456;2022-12-07T10:34:28;21.90;95.80
11214;DHT22;5664;48.606;13.456;2022-12-07T10:37:06;21.80;95.70
11214;DHT22;5664;48.606;13.456;2022-12-07T10:39:40;21.80;95.80
11214;DHT22;5664;48.606;13.456;2022-12-07T10:42:08;21.80;95.80
11214;DHT22;5664;48.606;13.456;2022-12-07T10:44:40;21.80;95.80
11214;DHT22;5664;48.606;13.456;2022-12-07T10:52:15;21.80;95.80
11214;DHT22;5664;48.606;13.456;2022-12-07T10:57:51;21.80;95.80
11214;DHT22;5664;48.606;13.456;2022-12-07T11:00:21;21.80;95.90
11214;DHT22;5664;48.606;13.456;2022-12-07T11:05:24;21.70;95.90
11214;DHT22;5664;48.606;13.456;2022-12-07T11:12:54;21.70;96.00
11214;DHT22;5664;48.606;13.456;2022-12-07T11:15:26;21.70;96.00
11214;DHT22;5664;48.606;13.456;2022-12-07T11:25:54;21.60;95.90
11214;DHT22;5664;48.606;13.456;2022-12-07T11:30:56;21.70;96.00
11214;DHT22;5664;48.606;13.456;2022-12-07T11:38:46;21.60;95.80
11214;DHT22;5664;48.606;13.456;2022-12-07T11:41:13;21.50;95.80
11214;DHT22;5664;48.606;13.456;2022-12-07T11:43:49;21.50;95.70
11214;DHT22;5664;48.606;13.456;2022-12-07T11:46:16;21.50;95.80
11214;DHT22;5664;48.606;13.456;2022-12-07T11:48:46;21.50;95.80
11214;DHT22;5664;48.606;13.456;2022-12-07T11:51:14;21.50;95.80
11214;DHT22;5664;48.606;13.456;2022-12-07T11:53:46;21.50;95.90
11214;DHT22;5664;48.606;13.456;2022-12-07T11:56:17;21.50;96.00
11214;DHT22;5664;48.606;13.456;2022-12-07T12:03:56;21.40;96.30
11214;DHT22;5664;48.606;13.456;2022-12-07T12:06:23;21.40;96.30
11214;DHT22;5664;48.606;13.456;2022-12-07T12:19:27;21.40;96.40
11214;DHT22;5664;48.606;13.456;2022-12-07T12:22:12;21.40;96.30
11214;DHT22;5664;48.606;13.456;2022-12-07T12:24:39;21.30;96.40
11214;DHT22;5664;48.606;13.456;2022-12-07T12:27:07;21.40;96.50
11214;DHT22;5664;48.606;13.456;2022-12-07T12:29:40;21.40;96.40
11214;DHT22;5664;48.606;13.456;2022-12-07T12:32:14;21.30;96.40
11214;DHT22;5664;48.606;13.456;2022-12-07T12:40:12;21.30;96.40
11214;DHT22;5664;48.606;13.456;2022-12-07T12:42:45;21.30;96.50
11214;DHT22;5664;48.606;13.456;2022-12-07T12:45:23;21.30;96.50
11214;DHT22;5664;48.606;13.456;2022-12-07T12:50:19;21.30;96.50
11214;DHT22;5664;48.606;13.456;2022-12-07T12:52:47;21.30;96.70
11214;DHT22;5664;48.606;13.456;2022-12-07T12:55:15;21.20;96.60
11214;DHT22;5664;48.606;13.456;2022-12-07T12:57:45;21.20;96.60
11214;DHT22;5664;48.606;13.456;2022-12-07T13:00:21;21.20;96.60
11214;DHT22;5664;48.606;13.456;2022-12-07T13:02:48;21.20;96.60
11214;DHT22;5664;48.606;13.456;2022-12-07T13:10:24;21.20;96.70
11214;DHT22;5664;48.606;13.456;2022-12-07T13:15:32;21.20;96.80
11214;DHT22;5664;48.606;13.456;2022-12-07T13:17:58;21.10;96.80
11214;DHT22;5664;48.606;13.456;2022-12-07T13:20:59;21.20;97.00
11214;DHT22;5664;48.606;13.456;2022-12-07T13:23:24;21.10;97.00
11214;DHT22;5664;48.606;13.456;2022-12-07T13:25:51;21.10;97.00
11214;DHT22;5664;48.606;13.456;2022-12-07T13:28:19;21.10;97.00
11214;DHT22;5664;48.606;13.456;2022-12-07T13:31:00;21.10;97.30
11214;DHT22;5664;48.606;13.456;2022-12-07T13:33:28;21.10;97.10
11214;DHT22;5664;48.606;13.456;2022-12-07T13:35:54;21.10;97.20
11214;DHT22;5664;48.606;13.456;2022-12-07T13:40:59;21.10;97.30
11214;DHT22;5664;48.606;13.456;2022-12-07T13:43:25;21.10;97.30
11214;DHT22;5664;48.606;13.456;2022-12-07T13:45:55;21.00;97.30
11214;DHT22;5664;48.606;13.456;2022-12-07T13:50:52;21.00;97.40
11214;DHT22;5664;48.606;13.456;2022-12-07T13:53:17;21.00;97.30
11214;DHT22;5664;48.606;13.456;2022-12-07T13:55:46;21.00;97.40
11214;DHT22;5664;48.606;13.456;2022-12-07T13:58:12;21.00;97.40
11214;DHT22;5664;48.606;13.456;2022-12-07T14:00:37;21.00;97.50
11214;DHT22;5664;48.606;13.456;2022-12-07T14:05:29;20.90;97.50
11214;DHT22;5664;48.606;13.456;2022-12-07T14:08:37;20.90;97.40
11214;DHT22;5664;48.606;13.456;2022-12-07T14:13:57;20.90;97.50
11214;DHT22;5664;48.606;13.456;2022-12-07T14:16:19;20.90;97.50
11214;DHT22;5664;48.606;13.456;2022-12-07T14:18:45;20.90;97.60
11214;DHT22;5664;48.606;13.456;2022-12-07T14:23:40;20.90;97.70
11214;DHT22;5664;48.606;13.456;2022-12-07T14:26:12;20.90;97.70
11214;DHT22;5664;48.606;13.456;2022-12-07T14:28:41;20.80;97.70
11214;DHT22;5664;48.606;13.456;2022-12-07T14:31:15;20.80;97.80
11214;DHT22;5664;48.606;13.456;2022-12-07T14:33:41;20.80;97.80
11214;DHT22;5664;48.606;13.456;2022-12-07T14:36:10;20.80;97.80
11214;DHT22;5664;48.606;13.456;2022-12-07T14:38:36;20.80;97.80
11214;DHT22;5664;48.606;13.456;2022-12-07T14:41:02;20.80;97.90
11214;DHT22;5664;48.606;13.456;2022-12-07T14:43:47;20.80;98.00
11214;DHT22;5664;48.606;13.456;2022-12-07T14:46:12;20.80;98.10
11214;DHT22;5664;48.606;13.456;2022-12-07T14:48:38;20.80;98.10
11214;DHT22;5664;48.606;13.456;2022-12-07T14:51:03;20.80;98.10
11214;DHT22;5664;48.606;13.456;2022-12-07T14:53:31;20.80;98.20
11214;DHT22;5664;48.606;13.456;2022-12-07T14:55:58;20.70;98.00
11214;DHT22;5664;48.606;13.456;2022-12-07T14:58:24;20.80;98.10
11214;DHT22;5664;48.606;13.456;2022-12-07T15:00:49;20.80;98.20
11214;DHT22;5664;48.606;13.456;2022-12-07T15:03:15;20.70;98.10
11214;DHT22;5664;48.606;13.456;2022-12-07T15:05:40;20.70;98.10
11214;DHT22;5664;48.606;13.456;2022-12-07T15:08:08;20.70;98.10
11214;DHT22;5664;48.606;13.456;2022-12-07T15:10:33;20.70;98.20
11214;DHT22;5664;48.606;13.456;2022-12-07T15:13:01;20.70;98.20
11214;DHT22;5664;48.606;13.456;2022-12-07T15:15:45;20.70;98.30
11214;DHT22;5664;48.606;13.456;2022-12-07T15:18:11;20.70;98.30
11214;DHT22;5664;48.606;13.456;2022-12-07T15:20:37;20.70;98.30
11214;DHT22;5664;48.606;13.456;2022-12-07T15:23:02;20.60;98.30
11214;DHT22;5664;48.606;13.456;2022-12-07T15:25:28;20.70;98.40
11214;DHT22;5664;48.606;13.456;2022-12-07T15:27:53;20.60;98.30
11214;DHT22;5664;48.606;13.456;2022-12-07T15:30:19;20.70;98.40
11214;DHT22;5664;48.606;13.456;2022-12-07T15:32:48;20.60;98.30
11214;DHT22;5664;48.606;13.456;2022-12-07T15:35:14;20.60;98.40
11214;DHT22;5664;48.606;13.456;2022-12-07T15:37:39;20.60;98.40
11214;DHT22;5664;48.606;13.456;2022-12-07T15:40:05;20.60;98.50
11214;DHT22;5664;48.606;13.456;2022-12-07T15:42:31;20.60;98.40
11214;DHT22;5664;48.606;13.456;2022-12-07T15:44:57;20.60;98.40
11214;DHT22;5664;48.606;13.456;2022-12-07T15:47:29;20.60;98.40
11214;DHT22;5664;48.606;13.456;2022-12-07T15:49:55;20.60;98.50
11214;DHT22;5664;48.606;13.456;2022-12-07T15:52:20;20.60;98.50
11214;DHT22;5664;48.606;13.456;2022-12-07T15:54:46;20.60;98.50
11214;DHT22;5664;48.606;13.456;2022-12-07T15:57:12;20.60;98.60
11214;DHT22;5664;48.606;13.456;2022-12-07T15:59:38;20.60;98.60
11214;DHT22;5664;48.606;13.456;2022-12-07T16:02:03;20.50;98.60
11214;DHT22;5664;48.606;13.456;2022-12-07T16:04:29;20.50;98.60
11214;DHT22;5664;48.606;13.456;2022-12-07T16:06:55;20.50;98.60
11214;DHT22;5664;48.606;13.456;2022-12-07T16:09:20;20.50;98.60
11214;DHT22;5664;48.606;13.456;2022-12-07T16:11:46;20.50;98.60
11214;DHT22;5664;48.606;13.456;2022-12-07T16:14:12;20.50;98.60
11214;DHT22;5664;48.606;13.456;2022-12-07T16:16:37;20.40;98.70
11214;DHT22;5664;48.606;13.456;2022-12-07T16:19:05;20.50;98.80
11214;DHT22;5664;48.606;13.456;2022-12-07T16:21:30;20.50;98.80
11214;DHT22;5664;48.606;13.456;2022-12-07T16:23:59;20.50;98.80
11214;DHT22;5664;48.606;13.456;2022-12-07T16:26:25;20.40;98.70
11214;DHT22;5664;48.606;13.456;2022-12-07T16:28:51;20.40;98.80
11214;DHT22;5664;48.606;13.456;2022-12-07T16:31:18;20.40;98.80
11214;DHT22;5664;48.606;13.456;2022-12-07T16:33:44;20.40;98.80
11214;DHT22;5664;48.606;13.456;2022-12-07T16:36:10;20.40;98.90
11214;DHT22;5664;48.606;13.456;2022-12-07T16:38:36;20.40;98.90
11214;DHT22;5664;48.606;13.456;2022-12-07T16:41:02;20.40;99.00
11214;DHT22;5664;48.606;13.456;2022-12-07T16:43:28;20.40;99.00
11214;DHT22;5664;48.606;13.456;2022-12-07T16:45:53;20.40;99.10
11214;DHT22;5664;48.606;13.456;2022-12-07T16:48:19;20.40;99.10
11214;DHT22;5664;48.606;13.456;2022-12-07T16:50:44;20.40;99.10
11214;DHT22;5664;48.606;13.456;2022-12-07T16:53:10;20.50;99.20
11214;DHT22;5664;48.606;13.456;2022-12-07T16:55:37;20.40;99.10
11214;DHT22;5664;48.606;13.456;2022-12-07T16:58:02;20.40;99.30
11214;DHT22;5664;48.606;13.456;2022-12-07T17:00:28;20.40;99.30
11214;DHT22;5664;48.606;13.456;2022-12-07T17:02:53;20.30;99.30
11214;DHT22;5664;48.606;13.456;2022-12-07T17:05:22;20.30;99.30
11214;DHT22;5664;48.606;13.456;2022-12-07T17:07:48;20.30;99.50
11214;DHT22;5664;48.606;13.456;2022-12-07T17:10:14;20.30;99.50
11214;DHT22;5664;48.606;13.456;2022-12-07T17:12:39;20.30;99.60
11214;DHT22;5664;48.606;13.456;2022-12-07T17:15:05;20.30;99.70
11214;DHT22;5664;48.606;13.456;2022-12-07T17:17:43;20.30;99.80
11214;DHT22;5664;48.606;13.456;2022-12-07T17:20:09;20.30;99.80